RRS Discovery — 2FGX5 — position and weather

sailwx.info

Track history (hours):
 
Tides and Currents Weather Stations Pressure Air Temp Water Temp Dewpoint Dewpoint Depression Visibility Wind Speed Wind Dir Waves Ship Positions

Oceanographic research ship RRS Discovery (UK)

Last reported at 2020-Sep-24 07:05 UTC. Time now 2020-Sep-24 08:00 UTC.
Position N 50°54' W 001°24'.

Length 100 m; draft 6.3 m.

Type: Other ship. MMSI: 235091165.

Date/timePositionNaut miles runAvg speedWind from/ knotsBaromVisibWave heightAir tempDewpointWater temp
2020-Sep-24 07:05N 50°54' W 001°24'0 0.0
2020-Sep-24 06:29N 50°54' W 001°24'0 0.0
2020-Sep-23 14:43N 50°54' W 001°24'0 0.0
2020-Sep-23 13:49N 50°54' W 001°24'41 3.5
2020-Sep-23 02:00N 50°34' W 000°26'1 0.3
2020-Sep-22 23:00N 50°34' W 000°25'4 0.7
2020-Sep-22 16:30N 50°37' W 000°21'0 0.2
2020-Sep-22 16:00N 50°37' W 000°21'0 0.0
2020-Sep-22 15:31N 50°37' W 000°21'10 3.0
2020-Sep-22 12:00N 50°32' W 000°06'9 9.5
2020-Sep-22 11:00N 50°34' E 000°08'1010.4
2020-Sep-22 10:00N 50°37' E 000°24'611.7
2020-Sep-22 09:30N 50°38' E 000°33'1912.7
2020-Sep-22 08:01N 50°49' E 000°58'612.1
2020-Sep-22 07:30N 50°52' E 001°06'611.6
2020-Sep-22 07:00N 50°56' E 001°13'2010.0
2020-Sep-22 05:00N 51°09' E 001°38'9 8.9
2020-Sep-22 04:00N 51°16' E 001°46'5 9.3
2020-Sep-22 03:30N 51°20' E 001°49'5612.3
2020-Sep-21 23:00N 52°03' E 002°47'1313.5
2020-Sep-21 22:00N 52°13' E 003°02'612.8
2020-Sep-21 21:30N 52°17' E 003°10'1212.0
2020-Sep-21 20:30N 52°26' E 003°23'3311.0
2020-Sep-21 17:30N 52°30' E 004°17'6 4.3
2020-Sep-21 16:00N 52°29' E 004°27'0 0.0
2020-Sep-21 14:00N 52°29' E 004°27'7 1.9
2020-Sep-21 10:30N 52°28' E 004°38'10 4.8
2020-Sep-21 08:30N 52°24' E 004°53'0 0.0
2020-Sep-21 07:30N 52°24' E 004°53'0 0.0
2020-Sep-21 05:30N 52°24' E 004°53'0 0.0
2020-Sep-21 01:30N 52°24' E 004°53'0 0.0
2020-Sep-21 00:30N 52°24' E 004°53'0 0.0
2020-Sep-20 23:30N 52°24' E 004°53'0 0.0
2020-Sep-20 19:30N 52°24' E 004°53'0 0.0
2020-Sep-20 19:00N 52°24' E 004°53'0 0.0
2020-Sep-20 18:00N 52°24' E 004°53'0 0.0
2020-Sep-20 17:30N 52°24' E 004°53'0 0.0
2020-Sep-20 17:00N 52°24' E 004°53'0 0.0
2020-Sep-20 16:30N 52°24' E 004°53'0 0.0
2020-Sep-20 16:00N 52°24' E 004°53'0 0.0
2020-Sep-20 14:30N 52°24' E 004°53'0 0.0
2020-Sep-20 12:30N 52°24' E 004°53'0 0.0
2020-Sep-20 11:59N 52°24' E 004°53'0 0.0
2020-Sep-20 11:29N 52°24' E 004°53'0 0.0
2020-Sep-20 10:29N 52°24' E 004°53'0 0.0
2020-Sep-20 08:29N 52°24' E 004°53'0 0.0
2020-Sep-20 06:59N 52°24' E 004°53'0 0.0
2020-Sep-20 05:59N 52°24' E 004°53'0 0.0
2020-Sep-19 23:59N 52°24' E 004°53'0 0.0
2020-Sep-19 20:29N 52°24' E 004°53'0 0.0
2020-Sep-19 18:59N 52°24' E 004°53'0 0.0
2020-Sep-19 17:29N 52°24' E 004°53'0 0.0
2020-Sep-19 16:29N 52°24' E 004°53'0 0.0
2020-Sep-19 13:59N 52°24' E 004°53'0 0.0
2020-Sep-19 10:59N 52°24' E 004°53'0 0.0
2020-Sep-19 09:59N 52°24' E 004°53'0 0.0
2020-Sep-19 07:29N 52°24' E 004°53'0 0.0
2020-Sep-19 06:59N 52°24' E 004°53'0 0.0
2020-Sep-19 04:59N 52°24' E 004°53'0 0.0
2020-Sep-19 04:28N 52°24' E 004°53'0 0.0
2020-Sep-19 02:28N 52°24' E 004°53'0 0.0
2020-Sep-19 01:28N 52°24' E 004°53'0 0.0
2020-Sep-18 23:28N 52°24' E 004°53'0 0.0
2020-Sep-18 22:28N 52°24' E 004°53'0 0.0
2020-Sep-18 19:58N 52°24' E 004°53'0 0.0
2020-Sep-18 18:58N 52°24' E 004°53'0 0.0
2020-Sep-18 17:58N 52°24' E 004°53'0 0.0
2020-Sep-18 14:58N 52°24' E 004°53'0 0.0
2020-Sep-18 13:28N 52°24' E 004°53'0 0.0
2020-Sep-18 10:28N 52°24' E 004°53'0 0.0
2020-Sep-18 07:28N 52°24' E 004°53'0 0.0
2020-Sep-18 06:58N 52°24' E 004°53'0 0.0
2020-Sep-18 04:58N 52°24' E 004°53'0 0.0
2020-Sep-18 02:58N 52°24' E 004°53'0 0.0
2020-Sep-18 01:28N 52°24' E 004°53'0 0.0
2020-Sep-18 00:58N 52°24' E 004°53'0 0.0
2020-Sep-17 19:30N 52°24' E 004°53'0 0.0
2020-Sep-17 17:00N 52°24' E 004°53'0 0.0
2020-Sep-17 15:30N 52°24' E 004°53'0 0.2
2020-Sep-17 14:30N 52°24' E 004°53'0 0.0
2020-Sep-17 12:00N 52°24' E 004°53'0 0.0
2020-Sep-17 08:00N 52°24' E 004°53'0 0.0
2020-Sep-17 07:30N 52°24' E 004°53'0 0.0
2020-Sep-17 07:00N 52°24' E 004°53'0 0.0
2020-Sep-17 06:30N 52°24' E 004°53'0 0.0
2020-Sep-17 03:30N 52°24' E 004°53'0 0.0
2020-Sep-17 03:00N 52°24' E 004°53'0 0.0
2020-Sep-17 01:30N 52°24' E 004°53'0 0.0
2020-Sep-17 01:00N 52°24' E 004°53'0 0.0
2020-Sep-17 00:30N 52°24' E 004°53'0 0.0
2020-Sep-17 00:00N 52°24' E 004°53'0 0.0
2020-Sep-16 20:28N 52°24' E 004°53'0 0.0
2020-Sep-16 18:28N 52°24' E 004°53'0 0.0
2020-Sep-16 17:58N 52°24' E 004°53'0 0.0
2020-Sep-16 16:58N 52°24' E 004°53'0 0.0
2020-Sep-16 16:28N 52°24' E 004°53'0 0.0
2020-Sep-16 11:58N 52°24' E 004°53'0 0.0
2020-Sep-16 06:58N 52°24' E 004°53'0 0.0
2020-Sep-16 04:58N 52°24' E 004°53'0 0.0
2020-Sep-16 04:28N 52°24' E 004°53'0 0.0
2020-Sep-16 03:58N 52°24' E 004°53'0 0.0
2020-Sep-16 02:58N 52°24' E 004°53'0 0.0
2020-Sep-15 23:58N 52°24' E 004°53'0 0.0
2020-Sep-15 23:28N 52°24' E 004°53'0 0.0
2020-Sep-15 22:28N 52°24' E 004°53'0 0.0
2020-Sep-15 20:28N 52°24' E 004°53'0 0.0
2020-Sep-15 14:00N 52°24' E 004°53'0 0.0
2020-Sep-15 13:30N 52°24' E 004°53'0 0.0
2020-Sep-15 12:00N 52°24' E 004°53'0 0.0
2020-Sep-15 09:30N 52°24' E 004°53'0 0.0
2020-Sep-15 07:30N 52°24' E 004°53'0 0.0
2020-Sep-15 05:30N 52°24' E 004°53'0 0.0
2020-Sep-15 03:00N 52°24' E 004°53'0 0.0
2020-Sep-15 02:00N 52°24' E 004°53'0 0.0
2020-Sep-14 21:00N 52°24' E 004°53'0 0.0
2020-Sep-14 20:00N 52°24' E 004°53'0 0.0
2020-Sep-14 14:30N 52°24' E 004°53'0 0.0
2020-Sep-14 12:30N 52°24' E 004°53'0 0.0
2020-Sep-14 10:00N 52°24' E 004°53'  
Track history (hours):
 
Tides and Currents Weather Stations Pressure Air Temp Water Temp Dewpoint Dewpoint Depression Visibility Wind Speed Wind Dir Waves Ship Positions

Oceanographic research ship RRS Discovery (UK)

Last reported at 2020-Sep-24 07:05 UTC. Time now 2020-Sep-24 08:00 UTC.
Position N 50°54' W 001°24'.

Length 100 m; draft 6.3 m.

Type: Other ship. MMSI: 235091165.

Date/timePositionNaut miles runAvg speedWind from/ knotsBaromVisibWave heightAir tempDewpointWater temp
2020-Sep-24 07:05N 50°54' W 001°24'0 0.0
2020-Sep-24 06:29N 50°54' W 001°24'0 0.0
2020-Sep-23 14:43N 50°54' W 001°24'0 0.0
2020-Sep-23 13:49N 50°54' W 001°24'41 3.5
2020-Sep-23 02:00N 50°34' W 000°26'1 0.3
2020-Sep-22 23:00N 50°34' W 000°25'4 0.7
2020-Sep-22 16:30N 50°37' W 000°21'0 0.2
2020-Sep-22 16:00N 50°37' W 000°21'0 0.0
2020-Sep-22 15:31N 50°37' W 000°21'10 3.0
2020-Sep-22 12:00N 50°32' W 000°06'9 9.5
2020-Sep-22 11:00N 50°34' E 000°08'1010.4
2020-Sep-22 10:00N 50°37' E 000°24'611.7
2020-Sep-22 09:30N 50°38' E 000°33'1912.7
2020-Sep-22 08:01N 50°49' E 000°58'612.1
2020-Sep-22 07:30N 50°52' E 001°06'611.6
2020-Sep-22 07:00N 50°56' E 001°13'2010.0
2020-Sep-22 05:00N 51°09' E 001°38'9 8.9
2020-Sep-22 04:00N 51°16' E 001°46'5 9.3
2020-Sep-22 03:30N 51°20' E 001°49'5612.3
2020-Sep-21 23:00N 52°03' E 002°47'1313.5
2020-Sep-21 22:00N 52°13' E 003°02'612.8
2020-Sep-21 21:30N 52°17' E 003°10'1212.0
2020-Sep-21 20:30N 52°26' E 003°23'3311.0
2020-Sep-21 17:30N 52°30' E 004°17'6 4.3
2020-Sep-21 16:00N 52°29' E 004°27'0 0.0
2020-Sep-21 14:00N 52°29' E 004°27'7 1.9
2020-Sep-21 10:30N 52°28' E 004°38'10 4.8
2020-Sep-21 08:30N 52°24' E 004°53'0 0.0
2020-Sep-21 07:30N 52°24' E 004°53'0 0.0
2020-Sep-21 05:30N 52°24' E 004°53'0 0.0
2020-Sep-21 01:30N 52°24' E 004°53'0 0.0
2020-Sep-21 00:30N 52°24' E 004°53'0 0.0
2020-Sep-20 23:30N 52°24' E 004°53'0 0.0
2020-Sep-20 19:30N 52°24' E 004°53'0 0.0
2020-Sep-20 19:00N 52°24' E 004°53'0 0.0
2020-Sep-20 18:00N 52°24' E 004°53'0 0.0
2020-Sep-20 17:30N 52°24' E 004°53'0 0.0
2020-Sep-20 17:00N 52°24' E 004°53'0 0.0
2020-Sep-20 16:30N 52°24' E 004°53'0 0.0
2020-Sep-20 16:00N 52°24' E 004°53'0 0.0
2020-Sep-20 14:30N 52°24' E 004°53'0 0.0
2020-Sep-20 12:30N 52°24' E 004°53'0 0.0
2020-Sep-20 11:59N 52°24' E 004°53'0 0.0
2020-Sep-20 11:29N 52°24' E 004°53'0 0.0
2020-Sep-20 10:29N 52°24' E 004°53'0 0.0
2020-Sep-20 08:29N 52°24' E 004°53'0 0.0
2020-Sep-20 06:59N 52°24' E 004°53'0 0.0
2020-Sep-20 05:59N 52°24' E 004°53'0 0.0
2020-Sep-19 23:59N 52°24' E 004°53'0 0.0
2020-Sep-19 20:29N 52°24' E 004°53'0 0.0
2020-Sep-19 18:59N 52°24' E 004°53'0 0.0
2020-Sep-19 17:29N 52°24' E 004°53'0 0.0
2020-Sep-19 16:29N 52°24' E 004°53'0 0.0
2020-Sep-19 13:59N 52°24' E 004°53'0 0.0
2020-Sep-19 10:59N 52°24' E 004°53'0 0.0
2020-Sep-19 09:59N 52°24' E 004°53'0 0.0
2020-Sep-19 07:29N 52°24' E 004°53'0 0.0
2020-Sep-19 06:59N 52°24' E 004°53'0 0.0
2020-Sep-19 04:59N 52°24' E 004°53'0 0.0
2020-Sep-19 04:28N 52°24' E 004°53'0 0.0
2020-Sep-19 02:28N 52°24' E 004°53'0 0.0
2020-Sep-19 01:28N 52°24' E 004°53'0 0.0
2020-Sep-18 23:28N 52°24' E 004°53'0 0.0
2020-Sep-18 22:28N 52°24' E 004°53'0 0.0
2020-Sep-18 19:58N 52°24' E 004°53'0 0.0
2020-Sep-18 18:58N 52°24' E 004°53'0 0.0
2020-Sep-18 17:58N 52°24' E 004°53'0 0.0
2020-Sep-18 14:58N 52°24' E 004°53'0 0.0
2020-Sep-18 13:28N 52°24' E 004°53'0 0.0
2020-Sep-18 10:28N 52°24' E 004°53'0 0.0
2020-Sep-18 07:28N 52°24' E 004°53'0 0.0
2020-Sep-18 06:58N 52°24' E 004°53'0 0.0
2020-Sep-18 04:58N 52°24' E 004°53'0 0.0
2020-Sep-18 02:58N 52°24' E 004°53'0 0.0
2020-Sep-18 01:28N 52°24' E 004°53'0 0.0
2020-Sep-18 00:58N 52°24' E 004°53'0 0.0
2020-Sep-17 19:30N 52°24' E 004°53'0 0.0
2020-Sep-17 17:00N 52°24' E 004°53'0 0.0
2020-Sep-17 15:30N 52°24' E 004°53'0 0.2
2020-Sep-17 14:30N 52°24' E 004°53'0 0.0
2020-Sep-17 12:00N 52°24' E 004°53'0 0.0
2020-Sep-17 08:00N 52°24' E 004°53'0 0.0
2020-Sep-17 07:30N 52°24' E 004°53'0 0.0
2020-Sep-17 07:00N 52°24' E 004°53'0 0.0
2020-Sep-17 06:30N 52°24' E 004°53'0 0.0
2020-Sep-17 03:30N 52°24' E 004°53'0 0.0
2020-Sep-17 03:00N 52°24' E 004°53'0 0.0
2020-Sep-17 01:30N 52°24' E 004°53'0 0.0
2020-Sep-17 01:00N 52°24' E 004°53'0 0.0
2020-Sep-17 00:30N 52°24' E 004°53'0 0.0
2020-Sep-17 00:00N 52°24' E 004°53'0 0.0
2020-Sep-16 20:28N 52°24' E 004°53'0 0.0
2020-Sep-16 18:28N 52°24' E 004°53'0 0.0
2020-Sep-16 17:58N 52°24' E 004°53'0 0.0
2020-Sep-16 16:58N 52°24' E 004°53'0 0.0
2020-Sep-16 16:28N 52°24' E 004°53'0 0.0
2020-Sep-16 11:58N 52°24' E 004°53'0 0.0
2020-Sep-16 06:58N 52°24' E 004°53'0 0.0
2020-Sep-16 04:58N 52°24' E 004°53'0 0.0
2020-Sep-16 04:28N 52°24' E 004°53'0 0.0
2020-Sep-16 03:58N 52°24' E 004°53'0 0.0
2020-Sep-16 02:58N 52°24' E 004°53'0 0.0
2020-Sep-15 23:58N 52°24' E 004°53'0 0.0
2020-Sep-15 23:28N 52°24' E 004°53'0 0.0
2020-Sep-15 22:28N 52°24' E 004°53'0 0.0
2020-Sep-15 20:28N 52°24' E 004°53'0 0.0
2020-Sep-15 14:00N 52°24' E 004°53'0 0.0
2020-Sep-15 13:30N 52°24' E 004°53'0 0.0
2020-Sep-15 12:00N 52°24' E 004°53'0 0.0
2020-Sep-15 09:30N 52°24' E 004°53'0 0.0
2020-Sep-15 07:30N 52°24' E 004°53'0 0.0
2020-Sep-15 05:30N 52°24' E 004°53'0 0.0
2020-Sep-15 03:00N 52°24' E 004°53'0 0.0
2020-Sep-15 02:00N 52°24' E 004°53'0 0.0
2020-Sep-14 21:00N 52°24' E 004°53'0 0.0
2020-Sep-14 20:00N 52°24' E 004°53'0 0.0
2020-Sep-14 14:30N 52°24' E 004°53'0 0.0
2020-Sep-14 12:30N 52°24' E 004°53'0 0.0
2020-Sep-14 10:00N 52°24' E 004°53'  

Dump ship's entire track history